sensor_id;sensor_type;location;lat;lon;timestamp;temperature;humidity
831;DHT22;397;50.564;7.272;2023-04-01T00:01:51;11.70;99.90
831;DHT22;397;50.564;7.272;2023-04-01T00:04:18;11.70;99.90
831;DHT22;397;50.564;7.272;2023-04-01T00:06:46;11.60;99.90
831;DHT22;397;50.564;7.272;2023-04-01T00:09:14;11.60;99.90
831;DHT22;397;50.564;7.272;2023-04-01T00:11:42;11.60;99.90
831;DHT22;397;50.564;7.272;2023-04-01T00:14:12;11.60;99.90
831;DHT22;397;50.564;7.272;2023-04-01T00:16:40;11.60;99.90
831;DHT22;397;50.564;7.272;2023-04-01T00:19:07;11.60;99.90
831;DHT22;397;50.564;7.272;2023-04-01T00:21:35;11.60;99.90
831;DHT22;397;50.564;7.272;2023-04-01T00:24:03;11.70;99.90
831;DHT22;397;50.564;7.272;2023-04-01T00:26:30;11.70;99.90
831;DHT22;397;50.564;7.272;2023-04-01T00:28:58;11.70;99.90
831;DHT22;397;50.564;7.272;2023-04-01T00:31:27;11.60;99.90
831;DHT22;397;50.564;7.272;2023-04-01T00:33:55;11.60;99.90
831;DHT22;397;50.564;7.272;2023-04-01T00:36:22;11.70;99.90
831;DHT22;397;50.564;7.272;2023-04-01T00:38:50;11.70;99.90
831;DHT22;397;50.564;7.272;2023-04-01T00:41:19;11.70;99.90
831;DHT22;397;50.564;7.272;2023-04-01T00:43:50;11.70;99.90
831;DHT22;397;50.564;7.272;2023-04-01T00:46:18;11.60;99.90
831;DHT22;397;50.564;7.272;2023-04-01T00:48:48;11.70;99.90
831;DHT22;397;50.564;7.272;2023-04-01T00:51:19;11.60;99.90
831;DHT22;397;50.564;7.272;2023-04-01T00:53:50;11.60;99.90
831;DHT22;397;50.564;7.272;2023-04-01T00:56:30;11.60;99.90
831;DHT22;397;50.564;7.272;2023-04-01T00:59:00;11.60;99.90
831;DHT22;397;50.564;7.272;2023-04-01T01:01:28;11.50;99.90
831;DHT22;397;50.564;7.272;2023-04-01T01:03:57;11.50;99.90
831;DHT22;397;50.564;7.272;2023-04-01T01:09:31;11.50;99.90
831;DHT22;397;50.564;7.272;2023-04-01T01:12:17;11.60;99.90
831;DHT22;397;50.564;7.272;2023-04-01T01:15:05;11.60;99.90
831;DHT22;397;50.564;7.272;2023-04-01T01:23:32;11.50;99.90
831;DHT22;397;50.564;7.272;2023-04-01T01:35:26;11.40;99.90
831;DHT22;397;50.564;7.272;2023-04-01T01:37:16;11.40;99.90
831;DHT22;397;50.564;7.272;2023-04-01T01:39:47;11.50;99.90
831;DHT22;397;50.564;7.272;2023-04-01T01:42:17;11.40;99.90
831;DHT22;397;50.564;7.272;2023-04-01T01:44:47;11.40;99.90
831;DHT22;397;50.564;7.272;2023-04-01T01:47:17;11.40;99.90
831;DHT22;397;50.564;7.272;2023-04-01T01:49:46;11.40;99.90
831;DHT22;397;50.564;7.272;2023-04-01T01:52:13;11.40;99.90
831;DHT22;397;50.564;7.272;2023-04-01T01:54:49;11.40;99.90
831;DHT22;397;50.564;7.272;2023-04-01T01:57:19;11.40;99.90
831;DHT22;397;50.564;7.272;2023-04-01T01:59:48;11.40;99.90
831;DHT22;397;50.564;7.272;2023-04-01T02:02:17;11.30;99.90
831;DHT22;397;50.564;7.272;2023-04-01T02:04:45;11.30;99.90
831;DHT22;397;50.564;7.272;2023-04-01T02:07:22;11.40;99.90
831;DHT22;397;50.564;7.272;2023-04-01T02:09:50;11.40;99.90
831;DHT22;397;50.564;7.272;2023-04-01T02:12:19;11.40;99.90
831;DHT22;397;50.564;7.272;2023-04-01T02:14:53;11.30;99.90
831;DHT22;397;50.564;7.272;2023-04-01T02:17:23;11.30;99.90
831;DHT22;397;50.564;7.272;2023-04-01T02:20:02;11.40;99.90
831;DHT22;397;50.564;7.272;2023-04-01T02:22:29;11.40;99.90
831;DHT22;397;50.564;7.272;2023-04-01T02:25:03;11.30;99.90
831;DHT22;397;50.564;7.272;2023-04-01T02:27:31;11.30;99.90
831;DHT22;397;50.564;7.272;2023-04-01T02:29:59;11.40;99.90
831;DHT22;397;50.564;7.272;2023-04-01T02:32:28;11.40;99.90
831;DHT22;397;50.564;7.272;2023-04-01T02:34:56;11.30;99.90
831;DHT22;397;50.564;7.272;2023-04-01T02:37:25;11.40;99.90
831;DHT22;397;50.564;7.272;2023-04-01T02:39:53;11.40;99.90
831;DHT22;397;50.564;7.272;2023-04-01T02:42:20;11.40;99.90
831;DHT22;397;50.564;7.272;2023-04-01T02:44:48;11.30;99.90
831;DHT22;397;50.564;7.272;2023-04-01T02:47:15;11.30;99.90
831;DHT22;397;50.564;7.272;2023-04-01T02:49:43;11.30;99.90
831;DHT22;397;50.564;7.272;2023-04-01T02:52:10;11.30;99.90
831;DHT22;397;50.564;7.272;2023-04-01T02:54:38;11.40;99.90
831;DHT22;397;50.564;7.272;2023-04-01T02:57:07;11.30;99.90
831;DHT22;397;50.564;7.272;2023-04-01T02:59:34;11.30;99.90
831;DHT22;397;50.564;7.272;2023-04-01T03:02:02;11.30;99.90
831;DHT22;397;50.564;7.272;2023-04-01T03:04:29;11.40;99.90
831;DHT22;397;50.564;7.272;2023-04-01T03:06:57;11.30;99.90
831;DHT22;397;50.564;7.272;2023-04-01T03:09:24;11.30;99.90
831;DHT22;397;50.564;7.272;2023-04-01T03:11:52;11.30;99.90
831;DHT22;397;50.564;7.272;2023-04-01T03:14:19;11.20;99.90
831;DHT22;397;50.564;7.272;2023-04-01T03:16:47;11.20;99.90
831;DHT22;397;50.564;7.272;2023-04-01T03:19:14;11.20;99.90
831;DHT22;397;50.564;7.272;2023-04-01T03:21:42;11.20;99.90
831;DHT22;397;50.564;7.272;2023-04-01T03:24:09;11.20;99.90
831;DHT22;397;50.564;7.272;2023-04-01T03:26:37;11.20;99.90
831;DHT22;397;50.564;7.272;2023-04-01T03:29:04;11.20;99.90
831;DHT22;397;50.564;7.272;2023-04-01T03:31:32;11.20;99.90
831;DHT22;397;50.564;7.272;2023-04-01T03:34:00;11.20;99.90
831;DHT22;397;50.564;7.272;2023-04-01T03:36:28;11.10;99.90
831;DHT22;397;50.564;7.272;2023-04-01T03:38:55;11.20;99.90
831;DHT22;397;50.564;7.272;2023-04-01T03:41:23;11.20;99.90
831;DHT22;397;50.564;7.272;2023-04-01T03:43:53;11.20;99.90
831;DHT22;397;50.564;7.272;2023-04-01T03:46:21;11.20;99.90
831;DHT22;397;50.564;7.272;2023-04-01T03:48:48;11.20;99.90
831;DHT22;397;50.564;7.272;2023-04-01T03:51:16;11.30;99.90
831;DHT22;397;50.564;7.272;2023-04-01T03:53:43;11.20;99.90
831;DHT22;397;50.564;7.272;2023-04-01T03:56:11;11.30;99.90
831;DHT22;397;50.564;7.272;2023-04-01T03:58:39;11.20;99.90
831;DHT22;397;50.564;7.272;2023-04-01T04:01:18;11.20;99.90
831;DHT22;397;50.564;7.272;2023-04-01T04:03:47;11.20;99.90
831;DHT22;397;50.564;7.272;2023-04-01T04:06:17;11.20;99.90
831;DHT22;397;50.564;7.272;2023-04-01T04:08:45;11.10;99.90
831;DHT22;397;50.564;7.272;2023-04-01T04:11:13;11.20;99.90
831;DHT22;397;50.564;7.272;2023-04-01T04:13:41;11.20;99.90
831;DHT22;397;50.564;7.272;2023-04-01T04:16:09;11.10;99.90
831;DHT22;397;50.564;7.272;2023-04-01T04:18:37;11.10;99.90
831;DHT22;397;50.564;7.272;2023-04-01T04:21:04;11.20;99.90
831;DHT22;397;50.564;7.272;2023-04-01T04:23:32;11.10;99.90
831;DHT22;397;50.564;7.272;2023-04-01T04:26:03;11.10;99.90
831;DHT22;397;50.564;7.272;2023-04-01T04:28:31;11.20;99.90
831;DHT22;397;50.564;7.272;2023-04-01T04:30:59;11.10;99.90
831;DHT22;397;50.564;7.272;2023-04-01T04:33:27;11.10;99.90
831;DHT22;397;50.564;7.272;2023-04-01T04:35:57;11.10;99.90
831;DHT22;397;50.564;7.272;2023-04-01T04:38:25;11.20;99.90
831;DHT22;397;50.564;7.272;2023-04-01T04:40:53;11.20;99.90
831;DHT22;397;50.564;7.272;2023-04-01T04:43:21;11.10;99.90
831;DHT22;397;50.564;7.272;2023-04-01T04:45:48;11.10;99.90
831;DHT22;397;50.564;7.272;2023-04-01T04:48:16;11.10;99.90
831;DHT22;397;50.564;7.272;2023-04-01T04:50:48;11.10;99.90
831;DHT22;397;50.564;7.272;2023-04-01T04:53:18;11.00;99.90
831;DHT22;397;50.564;7.272;2023-04-01T04:55:47;11.00;99.90
831;DHT22;397;50.564;7.272;2023-04-01T04:58:16;11.10;99.90
831;DHT22;397;50.564;7.272;2023-04-01T05:00:44;11.10;99.90
831;DHT22;397;50.564;7.272;2023-04-01T05:03:11;11.10;99.90
831;DHT22;397;50.564;7.272;2023-04-01T05:05:39;11.00;99.90
831;DHT22;397;50.564;7.272;2023-04-01T05:08:07;11.10;99.90
831;DHT22;397;50.564;7.272;2023-04-01T05:10:35;11.10;99.90
831;DHT22;397;50.564;7.272;2023-04-01T05:13:02;11.10;99.90
831;DHT22;397;50.564;7.272;2023-04-01T05:15:30;11.10;99.90
831;DHT22;397;50.564;7.272;2023-04-01T05:17:57;11.10;99.90
831;DHT22;397;50.564;7.272;2023-04-01T05:20:25;11.10;99.90
831;DHT22;397;50.564;7.272;2023-04-01T05:22:56;11.20;99.90
831;DHT22;397;50.564;7.272;2023-04-01T05:25:24;11.10;99.90
831;DHT22;397;50.564;7.272;2023-04-01T05:27:51;11.10;99.90
831;DHT22;397;50.564;7.272;2023-04-01T05:30:19;11.10;99.90
831;DHT22;397;50.564;7.272;2023-04-01T05:32:47;11.10;99.90
831;DHT22;397;50.564;7.272;2023-04-01T05:35:14;11.10;99.90
831;DHT22;397;50.564;7.272;2023-04-01T05:37:42;11.10;99.90
831;DHT22;397;50.564;7.272;2023-04-01T05:40:10;11.10;99.90
831;DHT22;397;50.564;7.272;2023-04-01T05:42:37;11.10;99.90
831;DHT22;397;50.564;7.272;2023-04-01T05:45:06;11.10;99.90
831;DHT22;397;50.564;7.272;2023-04-01T05:47:33;11.10;99.90
831;DHT22;397;50.564;7.272;2023-04-01T05:50:01;11.10;99.90
831;DHT22;397;50.564;7.272;2023-04-01T05:52:28;11.10;99.90
831;DHT22;397;50.564;7.272;2023-04-01T05:54:56;11.10;99.90
831;DHT22;397;50.564;7.272;2023-04-01T05:57:23;11.20;99.90
831;DHT22;397;50.564;7.272;2023-04-01T05:59:51;11.20;99.90
831;DHT22;397;50.564;7.272;2023-04-01T06:02:18;11.20;99.90
831;DHT22;397;50.564;7.272;2023-04-01T06:04:46;11.20;99.90
831;DHT22;397;50.564;7.272;2023-04-01T06:07:15;11.20;99.90
831;DHT22;397;50.564;7.272;2023-04-01T06:09:44;11.30;99.90
831;DHT22;397;50.564;7.272;2023-04-01T06:15:24;11.30;99.90
831;DHT22;397;50.564;7.272;2023-04-01T06:18:13;11.20;99.90
831;DHT22;397;50.564;7.272;2023-04-01T06:26:21;11.40;99.90
831;DHT22;397;50.564;7.272;2023-04-01T06:31:32;11.50;99.90
831;DHT22;397;50.564;7.272;2023-04-01T06:34:00;11.50;99.90
831;DHT22;397;50.564;7.272;2023-04-01T06:36:36;11.50;99.90
831;DHT22;397;50.564;7.272;2023-04-01T06:39:27;11.60;99.90
831;DHT22;397;50.564;7.272;2023-04-01T06:44:54;11.80;99.90
831;DHT22;397;50.564;7.272;2023-04-01T06:50:19;11.80;99.90
831;DHT22;397;50.564;7.272;2023-04-01T06:53:00;11.80;99.90
831;DHT22;397;50.564;7.272;2023-04-01T06:58:21;11.80;99.90
831;DHT22;397;50.564;7.272;2023-04-01T07:01:14;11.90;99.90
831;DHT22;397;50.564;7.272;2023-04-01T07:03:44;11.90;99.90
831;DHT22;397;50.564;7.272;2023-04-01T07:06:35;11.90;99.90
831;DHT22;397;50.564;7.272;2023-04-01T07:09:02;11.80;99.90
831;DHT22;397;50.564;7.272;2023-04-01T07:11:34;11.90;99.90
831;DHT22;397;50.564;7.272;2023-04-01T07:14:24;12.00;99.90
831;DHT22;397;50.564;7.272;2023-04-01T07:19:48;12.00;99.90
831;DHT22;397;50.564;7.272;2023-04-01T07:22:31;12.00;99.90
831;DHT22;397;50.564;7.272;2023-04-01T07:25:07;12.10;99.90
831;DHT22;397;50.564;7.272;2023-04-01T07:27:29;12.10;99.90
831;DHT22;397;50.564;7.272;2023-04-01T07:29:57;12.20;99.90
831;DHT22;397;50.564;7.272;2023-04-01T07:32:42;12.40;99.90
831;DHT22;397;50.564;7.272;2023-04-01T07:37:57;12.50;99.90
831;DHT22;397;50.564;7.272;2023-04-01T07:40:37;12.40;99.90
831;DHT22;397;50.564;7.272;2023-04-01T07:43:14;12.60;99.90
831;DHT22;397;50.564;7.272;2023-04-01T07:54:28;12.60;99.90
831;DHT22;397;50.564;7.272;2023-04-01T08:00:02;12.40;99.90
831;DHT22;397;50.564;7.272;2023-04-01T08:07:47;12.40;99.90
831;DHT22;397;50.564;7.272;2023-04-01T08:12:52;12.30;99.90
831;DHT22;397;50.564;7.272;2023-04-01T08:15:22;12.40;99.90
831;DHT22;397;50.564;7.272;2023-04-01T08:18:06;12.40;99.90
831;DHT22;397;50.564;7.272;2023-04-01T08:23:37;12.40;99.90
831;DHT22;397;50.564;7.272;2023-04-01T08:26:11;12.40;99.90
831;DHT22;397;50.564;7.272;2023-04-01T08:28:39;12.50;99.90
831;DHT22;397;50.564;7.272;2023-04-01T08:31:16;12.50;99.90
831;DHT22;397;50.564;7.272;2023-04-01T08:33:44;12.50;99.90
831;DHT22;397;50.564;7.272;2023-04-01T08:36:26;12.50;99.90
831;DHT22;397;50.564;7.272;2023-04-01T08:38:59;12.40;99.90
831;DHT22;397;50.564;7.272;2023-04-01T08:41:36;12.50;99.90
831;DHT22;397;50.564;7.272;2023-04-01T08:52:33;12.70;99.90
831;DHT22;397;50.564;7.272;2023-04-01T08:55:21;12.70;99.90
831;DHT22;397;50.564;7.272;2023-04-01T08:57:52;12.80;99.90
831;DHT22;397;50.564;7.272;2023-04-01T09:00:24;12.70;99.90
831;DHT22;397;50.564;7.272;2023-04-01T09:03:18;12.70;99.90
831;DHT22;397;50.564;7.272;2023-04-01T09:08:50;12.80;99.90
831;DHT22;397;50.564;7.272;2023-04-01T09:11:37;12.70;99.90
831;DHT22;397;50.564;7.272;2023-04-01T09:28:09;13.00;99.90
831;DHT22;397;50.564;7.272;2023-04-01T09:30:42;12.80;99.90
831;DHT22;397;50.564;7.272;2023-04-01T09:36:23;13.00;99.90
831;DHT22;397;50.564;7.272;2023-04-01T09:38:59;12.80;99.90
831;DHT22;397;50.564;7.272;2023-04-01T09:41:32;12.90;99.90
831;DHT22;397;50.564;7.272;2023-04-01T09:44:15;13.00;99.90
831;DHT22;397;50.564;7.272;2023-04-01T09:52:45;13.10;99.90
831;DHT22;397;50.564;7.272;2023-04-01T09:58:41;13.10;99.90
831;DHT22;397;50.564;7.272;2023-04-01T10:06:57;13.20;99.90
831;DHT22;397;50.564;7.272;2023-04-01T10:09:32;13.10;99.90
831;DHT22;397;50.564;7.272;2023-04-01T10:12:27;13.40;99.90
831;DHT22;397;50.564;7.272;2023-04-01T10:15:21;13.40;99.90
831;DHT22;397;50.564;7.272;2023-04-01T10:18:00;13.50;99.90
831;DHT22;397;50.564;7.272;2023-04-01T10:23:44;13.20;99.90
831;DHT22;397;50.564;7.272;2023-04-01T10:29:24;13.20;99.90
831;DHT22;397;50.564;7.272;2023-04-01T10:40:29;13.10;99.90
831;DHT22;397;50.564;7.272;2023-04-01T10:43:34;13.20;99.90
831;DHT22;397;50.564;7.272;2023-04-01T10:48:59;13.20;99.90
831;DHT22;397;50.564;7.272;2023-04-01T10:54:16;13.40;99.90
831;DHT22;397;50.564;7.272;2023-04-01T10:57:03;13.60;99.90
831;DHT22;397;50.564;7.272;2023-04-01T11:19:29;13.90;99.90
831;DHT22;397;50.564;7.272;2023-04-01T11:21:58;14.10;99.90
831;DHT22;397;50.564;7.272;2023-04-01T11:27:24;13.90;99.90
831;DHT22;397;50.564;7.272;2023-04-01T11:32:57;14.00;99.90
831;DHT22;397;50.564;7.272;2023-04-01T11:35:50;14.10;99.90
831;DHT22;397;50.564;7.272;2023-04-01T11:41:36;13.80;99.90
831;DHT22;397;50.564;7.272;2023-04-01T11:44:17;14.00;99.90
831;DHT22;397;50.564;7.272;2023-04-01T11:49:44;14.00;99.90
831;DHT22;397;50.564;7.272;2023-04-01T11:52:25;14.20;99.90
831;DHT22;397;50.564;7.272;2023-04-01T12:06:25;14.40;99.90
831;DHT22;397;50.564;7.272;2023-04-01T12:09:19;14.10;99.90
831;DHT22;397;50.564;7.272;2023-04-01T12:14:20;14.00;99.90
831;DHT22;397;50.564;7.272;2023-04-01T12:16:58;14.20;99.90
831;DHT22;397;50.564;7.272;2023-04-01T12:25:04;14.50;99.90
831;DHT22;397;50.564;7.272;2023-04-01T12:35:52;14.70;99.90
831;DHT22;397;50.564;7.272;2023-04-01T12:38:38;14.80;99.90
831;DHT22;397;50.564;7.272;2023-04-01T12:44:09;14.70;99.90
831;DHT22;397;50.564;7.272;2023-04-01T12:47:05;14.70;99.90
831;DHT22;397;50.564;7.272;2023-04-01T12:49:44;14.90;99.90
831;DHT22;397;50.564;7.272;2023-04-01T12:52:10;14.70;99.90
831;DHT22;397;50.564;7.272;2023-04-01T12:55:00;14.70;99.90
831;DHT22;397;50.564;7.272;2023-04-01T13:03:27;14.60;99.90
831;DHT22;397;50.564;7.272;2023-04-01T13:08:53;14.40;99.90
831;DHT22;397;50.564;7.272;2023-04-01T13:11:52;14.50;99.90
831;DHT22;397;50.564;7.272;2023-04-01T13:14:44;14.40;99.90
831;DHT22;397;50.564;7.272;2023-04-01T13:22:51;14.20;99.90
831;DHT22;397;50.564;7.272;2023-04-01T13:28:25;14.00;99.90
831;DHT22;397;50.564;7.272;2023-04-01T13:33:39;13.80;99.90
831;DHT22;397;50.564;7.272;2023-04-01T13:36:16;13.90;99.90
831;DHT22;397;50.564;7.272;2023-04-01T13:38:59;13.90;99.90
831;DHT22;397;50.564;7.272;2023-04-01T13:41:38;13.60;99.90
831;DHT22;397;50.564;7.272;2023-04-01T13:44:15;13.80;99.90
831;DHT22;397;50.564;7.272;2023-04-01T13:55:16;13.10;99.90
831;DHT22;397;50.564;7.272;2023-04-01T14:00:35;13.80;99.90
831;DHT22;397;50.564;7.272;2023-04-01T14:11:33;14.20;99.90
831;DHT22;397;50.564;7.272;2023-04-01T14:17:24;14.50;99.90
831;DHT22;397;50.564;7.272;2023-04-01T14:22:38;14.40;99.90
831;DHT22;397;50.564;7.272;2023-04-01T14:25:23;14.00;99.90
831;DHT22;397;50.564;7.272;2023-04-01T14:31:15;13.60;99.90
831;DHT22;397;50.564;7.272;2023-04-01T14:34:11;13.80;99.90
831;DHT22;397;50.564;7.272;2023-04-01T14:36:45;14.20;99.90
831;DHT22;397;50.564;7.272;2023-04-01T14:45:02;14.50;99.90
831;DHT22;397;50.564;7.272;2023-04-01T14:47:36;14.20;99.90
831;DHT22;397;50.564;7.272;2023-04-01T14:50:09;14.40;99.90
831;DHT22;397;50.564;7.272;2023-04-01T14:52:39;14.40;99.90
831;DHT22;397;50.564;7.272;2023-04-01T14:55:27;14.20;99.90
831;DHT22;397;50.564;7.272;2023-04-01T15:00:58;14.30;99.90
831;DHT22;397;50.564;7.272;2023-04-01T15:04:10;14.30;99.90
831;DHT22;397;50.564;7.272;2023-04-01T15:06:35;14.10;99.90
831;DHT22;397;50.564;7.272;2023-04-01T15:17:40;13.50;99.90
831;DHT22;397;50.564;7.272;2023-04-01T15:22:55;13.70;99.90
831;DHT22;397;50.564;7.272;2023-04-01T15:25:30;14.00;99.90
831;DHT22;397;50.564;7.272;2023-04-01T15:36:29;13.90;99.90
831;DHT22;397;50.564;7.272;2023-04-01T15:39:17;13.90;99.90
831;DHT22;397;50.564;7.272;2023-04-01T15:42:04;13.70;99.90
831;DHT22;397;50.564;7.272;2023-04-01T15:44:44;13.60;99.90
831;DHT22;397;50.564;7.272;2023-04-01T15:47:37;13.70;99.90
831;DHT22;397;50.564;7.272;2023-04-01T15:52:56;13.80;99.90
831;DHT22;397;50.564;7.272;2023-04-01T15:55:32;13.80;99.90
831;DHT22;397;50.564;7.272;2023-04-01T16:01:23;13.10;99.90
831;DHT22;397;50.564;7.272;2023-04-01T16:03:55;13.00;99.90
831;DHT22;397;50.564;7.272;2023-04-01T16:09:14;13.00;99.90
831;DHT22;397;50.564;7.272;2023-04-01T16:12:04;13.10;99.90
831;DHT22;397;50.564;7.272;2023-04-01T16:14:59;12.90;99.90
831;DHT22;397;50.564;7.272;2023-04-01T16:20:18;12.80;99.90
831;DHT22;397;50.564;7.272;2023-04-01T16:23:02;12.70;99.90
831;DHT22;397;50.564;7.272;2023-04-01T16:25:33;12.80;99.90
831;DHT22;397;50.564;7.272;2023-04-01T16:28:18;13.00;99.90
831;DHT22;397;50.564;7.272;2023-04-01T16:31:04;13.00;99.90
831;DHT22;397;50.564;7.272;2023-04-01T16:33:59;13.00;99.90
831;DHT22;397;50.564;7.272;2023-04-01T16:42:24;12.60;99.90
831;DHT22;397;50.564;7.272;2023-04-01T16:45:00;12.50;99.90
831;DHT22;397;50.564;7.272;2023-04-01T16:47:30;12.50;99.90
831;DHT22;397;50.564;7.272;2023-04-01T16:50:21;12.50;99.90
831;DHT22;397;50.564;7.272;2023-04-01T16:53:08;12.60;99.90
831;DHT22;397;50.564;7.272;2023-04-01T16:55:49;12.50;99.90
831;DHT22;397;50.564;7.272;2023-04-01T16:58:25;12.50;99.90
831;DHT22;397;50.564;7.272;2023-04-01T17:01:04;12.20;99.90
831;DHT22;397;50.564;7.272;2023-04-01T17:03:32;12.20;99.90
831;DHT22;397;50.564;7.272;2023-04-01T17:11:18;12.30;99.90
831;DHT22;397;50.564;7.272;2023-04-01T17:22:22;12.20;99.90
831;DHT22;397;50.564;7.272;2023-04-01T17:24:51;12.10;99.90
831;DHT22;397;50.564;7.272;2023-04-01T17:27:25;12.00;99.90
831;DHT22;397;50.564;7.272;2023-04-01T17:33:15;12.10;99.90
831;DHT22;397;50.564;7.272;2023-04-01T17:36:21;12.20;99.90
831;DHT22;397;50.564;7.272;2023-04-01T17:38:32;11.80;99.90
831;DHT22;397;50.564;7.272;2023-04-01T17:41:09;11.90;99.90
831;DHT22;397;50.564;7.272;2023-04-01T17:43:37;12.00;99.90
831;DHT22;397;50.564;7.272;2023-04-01T17:46:26;11.90;99.90
831;DHT22;397;50.564;7.272;2023-04-01T17:49:17;11.90;99.90
831;DHT22;397;50.564;7.272;2023-04-01T17:51:48;12.00;99.90
831;DHT22;397;50.564;7.272;2023-04-01T18:02:06;11.90;99.90
831;DHT22;397;50.564;7.272;2023-04-01T18:04:42;11.80;99.90
831;DHT22;397;50.564;7.272;2023-04-01T18:07:21;11.70;99.90
831;DHT22;397;50.564;7.272;2023-04-01T18:10:16;11.60;99.90
831;DHT22;397;50.564;7.272;2023-04-01T18:13:12;11.60;99.90
831;DHT22;397;50.564;7.272;2023-04-01T18:15:54;11.70;99.90
831;DHT22;397;50.564;7.272;2023-04-01T18:18:46;11.70;99.90
831;DHT22;397;50.564;7.272;2023-04-01T18:21:43;11.70;99.90
831;DHT22;397;50.564;7.272;2023-04-01T18:24:30;11.60;99.90
831;DHT22;397;50.564;7.272;2023-04-01T18:27:11;11.70;99.90
831;DHT22;397;50.564;7.272;2023-04-01T18:29:55;11.70;99.90
831;DHT22;397;50.564;7.272;2023-04-01T18:32:48;11.60;99.90
831;DHT22;397;50.564;7.272;2023-04-01T18:35:28;11.50;99.90
831;DHT22;397;50.564;7.272;2023-04-01T18:37:58;11.60;99.90
831;DHT22;397;50.564;7.272;2023-04-01T18:43:08;11.50;99.90
831;DHT22;397;50.564;7.272;2023-04-01T18:45:56;11.60;99.90
831;DHT22;397;50.564;7.272;2023-04-01T18:48:57;11.60;99.90
831;DHT22;397;50.564;7.272;2023-04-01T18:51:57;11.70;99.90
831;DHT22;397;50.564;7.272;2023-04-01T18:54:00;11.60;99.90
831;DHT22;397;50.564;7.272;2023-04-01T18:56:35;11.60;99.90
831;DHT22;397;50.564;7.272;2023-04-01T18:59:32;11.60;99.90
831;DHT22;397;50.564;7.272;2023-04-01T19:05:00;11.50;99.90
831;DHT22;397;50.564;7.272;2023-04-01T19:07:49;11.50;99.90
831;DHT22;397;50.564;7.272;2023-04-01T19:10:36;11.50;99.90
831;DHT22;397;50.564;7.272;2023-04-01T19:18:52;11.50;99.90
831;DHT22;397;50.564;7.272;2023-04-01T19:21:21;11.50;99.90
831;DHT22;397;50.564;7.272;2023-04-01T19:24:03;11.40;99.90
831;DHT22;397;50.564;7.272;2023-04-01T19:26:35;11.50;99.90
831;DHT22;397;50.564;7.272;2023-04-01T19:29:32;11.40;99.90
831;DHT22;397;50.564;7.272;2023-04-01T19:34:50;11.40;99.90
831;DHT22;397;50.564;7.272;2023-04-01T19:37:40;11.40;99.90
831;DHT22;397;50.564;7.272;2023-04-01T19:43:20;11.40;99.90
831;DHT22;397;50.564;7.272;2023-04-01T19:45:51;11.40;99.90
831;DHT22;397;50.564;7.272;2023-04-01T19:53:56;11.50;99.90
831;DHT22;397;50.564;7.272;2023-04-01T19:56:23;11.50;99.90
831;DHT22;397;50.564;7.272;2023-04-01T19:59:16;11.50;99.90
831;DHT22;397;50.564;7.272;2023-04-01T20:01:48;11.50;99.90
831;DHT22;397;50.564;7.272;2023-04-01T20:04:26;11.50;99.90
831;DHT22;397;50.564;7.272;2023-04-01T20:07:07;11.40;99.90
831;DHT22;397;50.564;7.272;2023-04-01T20:10:04;11.40;99.90
831;DHT22;397;50.564;7.272;2023-04-01T20:12:24;11.40;99.90
831;DHT22;397;50.564;7.272;2023-04-01T20:14:51;11.30;99.90
831;DHT22;397;50.564;7.272;2023-04-01T20:17:32;11.20;99.90
831;DHT22;397;50.564;7.272;2023-04-01T20:25:41;11.30;99.90
831;DHT22;397;50.564;7.272;2023-04-01T20:31:04;11.30;99.90
831;DHT22;397;50.564;7.272;2023-04-01T20:33:56;11.40;99.90
831;DHT22;397;50.564;7.272;2023-04-01T20:50:00;11.40;99.90
831;DHT22;397;50.564;7.272;2023-04-01T20:55:21;11.30;99.90
831;DHT22;397;50.564;7.272;2023-04-01T20:58:10;11.30;99.90
831;DHT22;397;50.564;7.272;2023-04-01T21:09:18;11.10;99.90
831;DHT22;397;50.564;7.272;2023-04-01T21:11:52;11.10;99.90
831;DHT22;397;50.564;7.272;2023-04-01T21:17:08;11.00;99.90
831;DHT22;397;50.564;7.272;2023-04-01T21:19:52;11.00;99.90
831;DHT22;397;50.564;7.272;2023-04-01T21:33:23;11.00;99.90
831;DHT22;397;50.564;7.272;2023-04-01T21:38:59;11.10;99.90
831;DHT22;397;50.564;7.272;2023-04-01T21:58:40;11.00;99.90
831;DHT22;397;50.564;7.272;2023-04-01T22:00:24;11.10;99.90
831;DHT22;397;50.564;7.272;2023-04-01T22:05:54;11.20;99.90
831;DHT22;397;50.564;7.272;2023-04-01T22:13:54;10.90;99.90
831;DHT22;397;50.564;7.272;2023-04-01T22:16:41;10.90;99.90
831;DHT22;397;50.564;7.272;2023-04-01T22:22:31;11.00;99.90
831;DHT22;397;50.564;7.272;2023-04-01T22:25:14;10.90;99.90
831;DHT22;397;50.564;7.272;2023-04-01T22:27:45;10.90;99.90
831;DHT22;397;50.564;7.272;2023-04-01T22:30:22;10.90;99.90
831;DHT22;397;50.564;7.272;2023-04-01T22:32:52;10.90;99.90
831;DHT22;397;50.564;7.272;2023-04-01T22:35:51;10.90;99.90
831;DHT22;397;50.564;7.272;2023-04-01T22:38:38;10.80;99.90
831;DHT22;397;50.564;7.272;2023-04-01T22:41:23;10.90;99.90
831;DHT22;397;50.564;7.272;2023-04-01T22:43:48;11.00;99.90
831;DHT22;397;50.564;7.272;2023-04-01T22:46:20;10.80;99.90
831;DHT22;397;50.564;7.272;2023-04-01T22:52:01;10.70;99.90
831;DHT22;397;50.564;7.272;2023-04-01T22:57:04;10.70;99.90
831;DHT22;397;50.564;7.272;2023-04-01T22:59:39;10.50;99.90
831;DHT22;397;50.564;7.272;2023-04-01T23:02:28;10.40;99.90
831;DHT22;397;50.564;7.272;2023-04-01T23:04:59;10.40;99.90
831;DHT22;397;50.564;7.272;2023-04-01T23:13:01;10.10;99.90
831;DHT22;397;50.564;7.272;2023-04-01T23:15:30;10.20;99.90
831;DHT22;397;50.564;7.272;2023-04-01T23:18:21;10.30;99.90
831;DHT22;397;50.564;7.272;2023-04-01T23:21:22;10.40;99.90
831;DHT22;397;50.564;7.272;2023-04-01T23:24:19;10.50;99.90
831;DHT22;397;50.564;7.272;2023-04-01T23:27:10;10.40;99.90
831;DHT22;397;50.564;7.272;2023-04-01T23:29:37;10.50;99.90
831;DHT22;397;50.564;7.272;2023-04-01T23:32:25;10.50;99.90
831;DHT22;397;50.564;7.272;2023-04-01T23:34:55;10.50;99.90
831;DHT22;397;50.564;7.272;2023-04-01T23:37:24;10.40;99.90
831;DHT22;397;50.564;7.272;2023-04-01T23:39:57;10.50;99.90
831;DHT22;397;50.564;7.272;2023-04-01T23:42:29;10.60;99.90
831;DHT22;397;50.564;7.272;2023-04-01T23:45:03;10.50;99.90
831;DHT22;397;50.564;7.272;2023-04-01T23:47:33;10.50;99.90
831;DHT22;397;50.564;7.272;2023-04-01T23:52:43;10.50;99.90
831;DHT22;397;50.564;7.272;2023-04-01T23:55:14;10.60;99.90
831;DHT22;397;50.564;7.272;2023-04-01T23:57:42;10.60;99.90
